sensor_id;sensor_type;location;lat;lon;timestamp;temperature;humidity
16263;DHT22;8239;48.594;8.598;2022-08-06T00:00:49;18.20;93.40
16263;DHT22;8239;48.594;8.598;2022-08-06T00:03:16;18.10;93.20
16263;DHT22;8239;48.594;8.598;2022-08-06T00:05:43;18.10;93.20
16263;DHT22;8239;48.594;8.598;2022-08-06T00:08:10;18.10;92.90
16263;DHT22;8239;48.594;8.598;2022-08-06T00:10:37;18.10;92.80
16263;DHT22;8239;48.594;8.598;2022-08-06T00:13:05;18.10;92.70
16263;DHT22;8239;48.594;8.598;2022-08-06T00:15:33;18.10;92.70
16263;DHT22;8239;48.594;8.598;2022-08-06T00:18:01;18.10;92.70
16263;DHT22;8239;48.594;8.598;2022-08-06T00:20:28;18.10;92.70
16263;DHT22;8239;48.594;8.598;2022-08-06T00:22:55;18.00;92.70
16263;DHT22;8239;48.594;8.598;2022-08-06T00:25:22;18.00;92.70
16263;DHT22;8239;48.594;8.598;2022-08-06T00:27:49;18.00;92.70
16263;DHT22;8239;48.594;8.598;2022-08-06T00:30:16;18.00;92.70
16263;DHT22;8239;48.594;8.598;2022-08-06T00:32:44;18.00;92.70
16263;DHT22;8239;48.594;8.598;2022-08-06T00:35:11;18.00;92.70
16263;DHT22;8239;48.594;8.598;2022-08-06T00:37:38;17.90;92.60
16263;DHT22;8239;48.594;8.598;2022-08-06T00:40:06;17.90;92.90
16263;DHT22;8239;48.594;8.598;2022-08-06T00:42:34;17.90;92.60
16263;DHT22;8239;48.594;8.598;2022-08-06T00:45:01;17.90;92.60
16263;DHT22;8239;48.594;8.598;2022-08-06T00:47:29;17.90;92.60
16263;DHT22;8239;48.594;8.598;2022-08-06T00:49:58;17.90;92.50
16263;DHT22;8239;48.594;8.598;2022-08-06T00:52:25;17.90;92.50
16263;DHT22;8239;48.594;8.598;2022-08-06T00:54:52;17.80;92.50
16263;DHT22;8239;48.594;8.598;2022-08-06T00:57:19;17.80;92.50
16263;DHT22;8239;48.594;8.598;2022-08-06T00:59:46;17.80;92.50
16263;DHT22;8239;48.594;8.598;2022-08-06T01:02:13;17.80;92.30
16263;DHT22;8239;48.594;8.598;2022-08-06T01:04:40;17.80;92.10
16263;DHT22;8239;48.594;8.598;2022-08-06T01:07:08;17.80;92.10
16263;DHT22;8239;48.594;8.598;2022-08-06T01:09:35;17.70;92.00
16263;DHT22;8239;48.594;8.598;2022-08-06T01:12:03;17.70;92.00
16263;DHT22;8239;48.594;8.598;2022-08-06T01:14:31;17.70;91.90
16263;DHT22;8239;48.594;8.598;2022-08-06T01:17:02;17.70;91.60
16263;DHT22;8239;48.594;8.598;2022-08-06T01:19:50;17.70;91.30
16263;DHT22;8239;48.594;8.598;2022-08-06T01:22:37;17.70;91.10
16263;DHT22;8239;48.594;8.598;2022-08-06T01:25:32;17.60;90.90
16263;DHT22;8239;48.594;8.598;2022-08-06T01:28:07;17.60;90.90
16263;DHT22;8239;48.594;8.598;2022-08-06T01:30:42;17.60;90.80
16263;DHT22;8239;48.594;8.598;2022-08-06T01:33:14;17.60;90.70
16263;DHT22;8239;48.594;8.598;2022-08-06T01:35:47;17.60;90.70
16263;DHT22;8239;48.594;8.598;2022-08-06T01:38:20;17.50;90.60
16263;DHT22;8239;48.594;8.598;2022-08-06T01:40:50;17.50;90.50
16263;DHT22;8239;48.594;8.598;2022-08-06T01:43:20;17.50;90.40
16263;DHT22;8239;48.594;8.598;2022-08-06T01:45:49;17.50;90.40
16263;DHT22;8239;48.594;8.598;2022-08-06T01:48:21;17.50;90.30
16263;DHT22;8239;48.594;8.598;2022-08-06T01:50:49;17.50;90.30
16263;DHT22;8239;48.594;8.598;2022-08-06T01:53:27;17.40;90.20
16263;DHT22;8239;48.594;8.598;2022-08-06T01:55:57;17.40;90.10
16263;DHT22;8239;48.594;8.598;2022-08-06T01:58:30;17.50;90.10
16263;DHT22;8239;48.594;8.598;2022-08-06T02:01:00;17.40;90.00
16263;DHT22;8239;48.594;8.598;2022-08-06T02:03:31;17.40;89.70
16263;DHT22;8239;48.594;8.598;2022-08-06T02:06:01;17.40;89.60
16263;DHT22;8239;48.594;8.598;2022-08-06T02:08:32;17.30;89.40
16263;DHT22;8239;48.594;8.598;2022-08-06T02:11:02;17.30;89.40
16263;DHT22;8239;48.594;8.598;2022-08-06T02:13:32;17.30;89.20
16263;DHT22;8239;48.594;8.598;2022-08-06T02:16:02;17.30;89.40
16263;DHT22;8239;48.594;8.598;2022-08-06T02:18:33;17.30;89.40
16263;DHT22;8239;48.594;8.598;2022-08-06T02:21:04;17.30;89.40
16263;DHT22;8239;48.594;8.598;2022-08-06T02:23:33;17.20;89.40
16263;DHT22;8239;48.594;8.598;2022-08-06T02:26:02;17.20;89.60
16263;DHT22;8239;48.594;8.598;2022-08-06T02:28:31;17.20;89.70
16263;DHT22;8239;48.594;8.598;2022-08-06T02:31:00;17.20;89.80
16263;DHT22;8239;48.594;8.598;2022-08-06T02:33:28;17.10;90.20
16263;DHT22;8239;48.594;8.598;2022-08-06T02:36:00;17.10;90.00
16263;DHT22;8239;48.594;8.598;2022-08-06T02:38:35;17.10;90.10
16263;DHT22;8239;48.594;8.598;2022-08-06T02:41:11;17.10;90.10
16263;DHT22;8239;48.594;8.598;2022-08-06T02:43:44;17.10;90.20
16263;DHT22;8239;48.594;8.598;2022-08-06T02:46:18;17.00;90.20
16263;DHT22;8239;48.594;8.598;2022-08-06T02:48:49;17.00;90.20
16263;DHT22;8239;48.594;8.598;2022-08-06T02:51:20;17.00;90.20
16263;DHT22;8239;48.594;8.598;2022-08-06T02:53:58;17.00;90.30
16263;DHT22;8239;48.594;8.598;2022-08-06T02:56:27;17.00;90.40
16263;DHT22;8239;48.594;8.598;2022-08-06T02:58:57;16.90;90.40
16263;DHT22;8239;48.594;8.598;2022-08-06T03:01:29;16.90;90.50
16263;DHT22;8239;48.594;8.598;2022-08-06T03:03:58;16.90;90.60
16263;DHT22;8239;48.594;8.598;2022-08-06T03:06:27;16.90;90.60
16263;DHT22;8239;48.594;8.598;2022-08-06T03:08:56;16.80;90.70
16263;DHT22;8239;48.594;8.598;2022-08-06T03:11:24;16.80;90.80
16263;DHT22;8239;48.594;8.598;2022-08-06T03:13:53;16.70;90.90
16263;DHT22;8239;48.594;8.598;2022-08-06T03:16:23;16.70;91.00
16263;DHT22;8239;48.594;8.598;2022-08-06T03:18:52;16.70;91.10
16263;DHT22;8239;48.594;8.598;2022-08-06T03:21:21;16.70;91.20
16263;DHT22;8239;48.594;8.598;2022-08-06T03:23:50;16.60;91.30
16263;DHT22;8239;48.594;8.598;2022-08-06T03:26:18;16.60;91.40
16263;DHT22;8239;48.594;8.598;2022-08-06T03:28:46;16.60;91.40
16263;DHT22;8239;48.594;8.598;2022-08-06T03:31:13;16.60;91.50
16263;DHT22;8239;48.594;8.598;2022-08-06T03:33:42;16.50;91.50
16263;DHT22;8239;48.594;8.598;2022-08-06T03:36:10;16.50;91.50
16263;DHT22;8239;48.594;8.598;2022-08-06T03:38:39;16.40;91.60
16263;DHT22;8239;48.594;8.598;2022-08-06T03:41:08;16.40;91.70
16263;DHT22;8239;48.594;8.598;2022-08-06T03:43:36;16.30;91.90
16263;DHT22;8239;48.594;8.598;2022-08-06T03:46:05;16.30;92.00
16263;DHT22;8239;48.594;8.598;2022-08-06T03:48:36;16.20;92.10
16263;DHT22;8239;48.594;8.598;2022-08-06T03:51:11;16.20;92.20
16263;DHT22;8239;48.594;8.598;2022-08-06T03:53:40;16.20;92.30
16263;DHT22;8239;48.594;8.598;2022-08-06T03:56:10;16.20;92.30
16263;DHT22;8239;48.594;8.598;2022-08-06T03:58:39;16.20;92.50
16263;DHT22;8239;48.594;8.598;2022-08-06T04:01:18;16.10;92.50
16263;DHT22;8239;48.594;8.598;2022-08-06T04:03:47;16.10;92.50
16263;DHT22;8239;48.594;8.598;2022-08-06T04:06:18;16.00;92.60
16263;DHT22;8239;48.594;8.598;2022-08-06T04:08:46;16.00;92.70
16263;DHT22;8239;48.594;8.598;2022-08-06T04:11:15;15.90;93.00
16263;DHT22;8239;48.594;8.598;2022-08-06T04:13:42;15.90;93.30
16263;DHT22;8239;48.594;8.598;2022-08-06T04:16:11;15.90;93.80
16263;DHT22;8239;48.594;8.598;2022-08-06T04:18:39;15.90;93.90
16263;DHT22;8239;48.594;8.598;2022-08-06T04:21:12;15.90;94.40
16263;DHT22;8239;48.594;8.598;2022-08-06T04:23:42;15.90;94.40
16263;DHT22;8239;48.594;8.598;2022-08-06T04:26:12;15.90;94.20
16263;DHT22;8239;48.594;8.598;2022-08-06T04:28:42;15.90;94.10
16263;DHT22;8239;48.594;8.598;2022-08-06T04:31:10;15.90;94.10
16263;DHT22;8239;48.594;8.598;2022-08-06T04:33:39;15.90;94.00
16263;DHT22;8239;48.594;8.598;2022-08-06T04:36:07;15.80;93.90
16263;DHT22;8239;48.594;8.598;2022-08-06T04:38:35;15.80;94.00
16263;DHT22;8239;48.594;8.598;2022-08-06T04:41:04;15.80;94.10
16263;DHT22;8239;48.594;8.598;2022-08-06T04:43:31;15.70;94.30
16263;DHT22;8239;48.594;8.598;2022-08-06T04:45:59;15.70;94.40
16263;DHT22;8239;48.594;8.598;2022-08-06T04:48:27;15.60;94.50
16263;DHT22;8239;48.594;8.598;2022-08-06T04:50:54;15.60;94.60
16263;DHT22;8239;48.594;8.598;2022-08-06T04:53:22;15.60;94.80
16263;DHT22;8239;48.594;8.598;2022-08-06T04:55:49;15.60;95.10
16263;DHT22;8239;48.594;8.598;2022-08-06T04:58:17;15.60;95.20
16263;DHT22;8239;48.594;8.598;2022-08-06T05:00:46;15.60;95.20
16263;DHT22;8239;48.594;8.598;2022-08-06T05:03:14;15.70;95.30
16263;DHT22;8239;48.594;8.598;2022-08-06T05:05:46;15.70;95.40
16263;DHT22;8239;48.594;8.598;2022-08-06T05:08:14;15.80;95.50
16263;DHT22;8239;48.594;8.598;2022-08-06T05:10:46;15.80;95.50
16263;DHT22;8239;48.594;8.598;2022-08-06T05:13:17;15.90;95.50
16263;DHT22;8239;48.594;8.598;2022-08-06T05:15:51;16.00;95.40
16263;DHT22;8239;48.594;8.598;2022-08-06T05:18:21;16.00;95.30
16263;DHT22;8239;48.594;8.598;2022-08-06T05:20:53;16.10;95.30
16263;DHT22;8239;48.594;8.598;2022-08-06T05:23:24;16.20;95.40
16263;DHT22;8239;48.594;8.598;2022-08-06T05:25:51;16.40;95.10
16263;DHT22;8239;48.594;8.598;2022-08-06T05:28:20;16.50;94.90
16263;DHT22;8239;48.594;8.598;2022-08-06T05:30:48;16.60;95.00
16263;DHT22;8239;48.594;8.598;2022-08-06T05:33:23;16.80;94.40
16263;DHT22;8239;48.594;8.598;2022-08-06T05:35:50;16.90;94.20
16263;DHT22;8239;48.594;8.598;2022-08-06T05:38:17;17.00;94.00
16263;DHT22;8239;48.594;8.598;2022-08-06T05:40:44;17.10;93.80
16263;DHT22;8239;48.594;8.598;2022-08-06T05:43:11;17.20;93.60
16263;DHT22;8239;48.594;8.598;2022-08-06T05:45:47;17.30;93.50
16263;DHT22;8239;48.594;8.598;2022-08-06T05:48:19;17.40;93.30
16263;DHT22;8239;48.594;8.598;2022-08-06T05:50:49;17.50;93.00
16263;DHT22;8239;48.594;8.598;2022-08-06T05:53:21;17.50;92.70
16263;DHT22;8239;48.594;8.598;2022-08-06T05:55:53;17.50;92.50
16263;DHT22;8239;48.594;8.598;2022-08-06T05:58:24;17.50;92.40
16263;DHT22;8239;48.594;8.598;2022-08-06T06:00:58;17.60;92.40
16263;DHT22;8239;48.594;8.598;2022-08-06T06:03:26;17.50;92.30
16263;DHT22;8239;48.594;8.598;2022-08-06T06:05:54;17.50;92.20
16263;DHT22;8239;48.594;8.598;2022-08-06T06:08:22;17.50;92.60
16263;DHT22;8239;48.594;8.598;2022-08-06T06:10:51;17.50;92.20
16263;DHT22;8239;48.594;8.598;2022-08-06T06:13:19;17.50;92.20
16263;DHT22;8239;48.594;8.598;2022-08-06T06:15:50;17.60;92.20
16263;DHT22;8239;48.594;8.598;2022-08-06T06:18:27;17.60;92.20
16263;DHT22;8239;48.594;8.598;2022-08-06T06:21:00;17.80;92.10
16263;DHT22;8239;48.594;8.598;2022-08-06T06:23:36;18.00;91.90
16263;DHT22;8239;48.594;8.598;2022-08-06T06:26:20;18.20;91.50
16263;DHT22;8239;48.594;8.598;2022-08-06T06:28:54;18.40;91.10
16263;DHT22;8239;48.594;8.598;2022-08-06T06:31:27;18.60;90.80
16263;DHT22;8239;48.594;8.598;2022-08-06T06:34:01;18.70;90.30
16263;DHT22;8239;48.594;8.598;2022-08-06T06:36:36;18.80;90.00
16263;DHT22;8239;48.594;8.598;2022-08-06T06:39:09;18.90;89.60
16263;DHT22;8239;48.594;8.598;2022-08-06T06:41:43;19.00;89.10
16263;DHT22;8239;48.594;8.598;2022-08-06T06:44:16;19.00;88.50
16263;DHT22;8239;48.594;8.598;2022-08-06T06:46:49;19.10;88.30
16263;DHT22;8239;48.594;8.598;2022-08-06T06:49:22;19.10;86.80
16263;DHT22;8239;48.594;8.598;2022-08-06T06:51:55;19.10;87.00
16263;DHT22;8239;48.594;8.598;2022-08-06T06:54:26;19.10;87.60
16263;DHT22;8239;48.594;8.598;2022-08-06T06:56:56;19.20;86.90
16263;DHT22;8239;48.594;8.598;2022-08-06T06:59:35;19.20;86.60
16263;DHT22;8239;48.594;8.598;2022-08-06T07:02:04;19.10;86.40
16263;DHT22;8239;48.594;8.598;2022-08-06T07:04:35;19.00;86.60
16263;DHT22;8239;48.594;8.598;2022-08-06T07:07:04;19.20;88.30
16263;DHT22;8239;48.594;8.598;2022-08-06T07:09:33;19.90;86.90
16263;DHT22;8239;48.594;8.598;2022-08-06T07:12:02;20.80;84.00
16263;DHT22;8239;48.594;8.598;2022-08-06T07:14:32;21.80;80.00
16263;DHT22;8239;48.594;8.598;2022-08-06T07:17:02;22.60;74.70
16263;DHT22;8239;48.594;8.598;2022-08-06T07:19:30;23.40;72.80
16263;DHT22;8239;48.594;8.598;2022-08-06T07:22:01;24.20;67.80
16263;DHT22;8239;48.594;8.598;2022-08-06T07:24:32;24.50;63.90
16263;DHT22;8239;48.594;8.598;2022-08-06T07:27:00;24.40;61.60
16263;DHT22;8239;48.594;8.598;2022-08-06T07:29:29;24.50;61.20
16263;DHT22;8239;48.594;8.598;2022-08-06T07:31:57;24.20;61.40
16263;DHT22;8239;48.594;8.598;2022-08-06T07:34:26;24.20;61.20
16263;DHT22;8239;48.594;8.598;2022-08-06T07:36:55;24.00;61.30
16263;DHT22;8239;48.594;8.598;2022-08-06T07:39:27;23.80;60.70
16263;DHT22;8239;48.594;8.598;2022-08-06T07:41:56;23.40;61.20
16263;DHT22;8239;48.594;8.598;2022-08-06T07:44:25;23.10;61.70
16263;DHT22;8239;48.594;8.598;2022-08-06T07:46:55;23.10;63.20
16263;DHT22;8239;48.594;8.598;2022-08-06T07:49:26;23.50;62.90
16263;DHT22;8239;48.594;8.598;2022-08-06T07:51:56;24.00;61.40
16263;DHT22;8239;48.594;8.598;2022-08-06T07:54:26;24.20;59.30
16263;DHT22;8239;48.594;8.598;2022-08-06T07:56:56;24.10;57.60
16263;DHT22;8239;48.594;8.598;2022-08-06T07:59:24;23.80;58.20
16263;DHT22;8239;48.594;8.598;2022-08-06T08:01:52;23.50;58.70
16263;DHT22;8239;48.594;8.598;2022-08-06T08:04:19;23.20;59.60
16263;DHT22;8239;48.594;8.598;2022-08-06T08:07:05;23.10;59.50
16263;DHT22;8239;48.594;8.598;2022-08-06T08:09:36;23.00;58.50
16263;DHT22;8239;48.594;8.598;2022-08-06T08:12:05;23.30;58.60
16263;DHT22;8239;48.594;8.598;2022-08-06T08:14:34;23.80;57.60
16263;DHT22;8239;48.594;8.598;2022-08-06T08:17:01;24.40;56.30
16263;DHT22;8239;48.594;8.598;2022-08-06T08:19:29;25.10;54.30
16263;DHT22;8239;48.594;8.598;2022-08-06T08:21:58;25.80;52.50
16263;DHT22;8239;48.594;8.598;2022-08-06T08:24:26;26.70;52.20
16263;DHT22;8239;48.594;8.598;2022-08-06T08:26:55;27.80;48.70
16263;DHT22;8239;48.594;8.598;2022-08-06T08:29:22;28.00;46.50
16263;DHT22;8239;48.594;8.598;2022-08-06T08:31:49;28.40;46.00
16263;DHT22;8239;48.594;8.598;2022-08-06T08:34:17;28.70;44.90
16263;DHT22;8239;48.594;8.598;2022-08-06T08:36:44;28.50;44.00
16263;DHT22;8239;48.594;8.598;2022-08-06T08:39:11;28.00;44.60
16263;DHT22;8239;48.594;8.598;2022-08-06T08:41:44;28.20;44.50
16263;DHT22;8239;48.594;8.598;2022-08-06T08:44:17;28.50;43.50
16263;DHT22;8239;48.594;8.598;2022-08-06T08:46:47;28.20;44.50
16263;DHT22;8239;48.594;8.598;2022-08-06T08:49:18;28.20;43.70
16263;DHT22;8239;48.594;8.598;2022-08-06T08:51:46;27.50;43.60
16263;DHT22;8239;48.594;8.598;2022-08-06T08:54:19;26.80;45.10
16263;DHT22;8239;48.594;8.598;2022-08-06T08:56:47;26.40;47.10
16263;DHT22;8239;48.594;8.598;2022-08-06T08:59:17;26.10;47.80
16263;DHT22;8239;48.594;8.598;2022-08-06T09:01:45;26.20;47.40
16263;DHT22;8239;48.594;8.598;2022-08-06T09:04:13;27.00;47.20
16263;DHT22;8239;48.594;8.598;2022-08-06T09:06:40;28.20;45.60
16263;DHT22;8239;48.594;8.598;2022-08-06T09:09:07;29.40;43.40
16263;DHT22;8239;48.594;8.598;2022-08-06T09:11:36;29.50;42.10
16263;DHT22;8239;48.594;8.598;2022-08-06T09:14:04;29.90;41.70
16263;DHT22;8239;48.594;8.598;2022-08-06T09:16:34;29.70;41.30
16263;DHT22;8239;48.594;8.598;2022-08-06T09:19:02;29.90;41.70
16263;DHT22;8239;48.594;8.598;2022-08-06T09:21:30;30.00;40.70
16263;DHT22;8239;48.594;8.598;2022-08-06T09:23:57;30.30;40.00
16263;DHT22;8239;48.594;8.598;2022-08-06T09:26:25;30.80;39.10
16263;DHT22;8239;48.594;8.598;2022-08-06T09:28:52;30.80;38.20
16263;DHT22;8239;48.594;8.598;2022-08-06T09:31:20;30.90;38.40
16263;DHT22;8239;48.594;8.598;2022-08-06T09:33:56;31.00;38.60
16263;DHT22;8239;48.594;8.598;2022-08-06T09:36:24;31.30;37.00
16263;DHT22;8239;48.594;8.598;2022-08-06T09:38:52;31.10;37.40
16263;DHT22;8239;48.594;8.598;2022-08-06T09:41:20;30.60;38.60
16263;DHT22;8239;48.594;8.598;2022-08-06T09:43:49;30.70;38.40
16263;DHT22;8239;48.594;8.598;2022-08-06T09:46:18;30.30;38.10
16263;DHT22;8239;48.594;8.598;2022-08-06T09:48:59;29.40;39.80
16263;DHT22;8239;48.594;8.598;2022-08-06T09:51:27;29.00;41.20
16263;DHT22;8239;48.594;8.598;2022-08-06T09:53:56;28.90;40.60
16263;DHT22;8239;48.594;8.598;2022-08-06T09:56:24;28.20;41.30
16263;DHT22;8239;48.594;8.598;2022-08-06T09:58:57;27.70;42.40
16263;DHT22;8239;48.594;8.598;2022-08-06T10:01:24;27.50;43.20
16263;DHT22;8239;48.594;8.598;2022-08-06T10:03:54;27.70;43.60
16263;DHT22;8239;48.594;8.598;2022-08-06T10:06:23;27.70;43.20
16263;DHT22;8239;48.594;8.598;2022-08-06T10:09:06;27.90;43.10
16263;DHT22;8239;48.594;8.598;2022-08-06T10:11:36;28.00;43.00
16263;DHT22;8239;48.594;8.598;2022-08-06T10:14:04;27.70;42.70
16263;DHT22;8239;48.594;8.598;2022-08-06T10:16:31;27.60;43.00
16263;DHT22;8239;48.594;8.598;2022-08-06T10:18:59;27.50;43.10
16263;DHT22;8239;48.594;8.598;2022-08-06T10:21:33;27.30;43.90
16263;DHT22;8239;48.594;8.598;2022-08-06T10:24:01;27.50;44.90
16263;DHT22;8239;48.594;8.598;2022-08-06T10:26:31;28.20;43.40
16263;DHT22;8239;48.594;8.598;2022-08-06T10:29:01;28.40;42.00
16263;DHT22;8239;48.594;8.598;2022-08-06T10:31:29;28.60;41.60
16263;DHT22;8239;48.594;8.598;2022-08-06T10:33:59;28.80;41.20
16263;DHT22;8239;48.594;8.598;2022-08-06T10:36:31;28.70;40.90
16263;DHT22;8239;48.594;8.598;2022-08-06T10:38:59;28.40;40.70
16263;DHT22;8239;48.594;8.598;2022-08-06T10:41:26;28.00;41.70
16263;DHT22;8239;48.594;8.598;2022-08-06T10:43:54;28.50;41.90
16263;DHT22;8239;48.594;8.598;2022-08-06T10:46:22;29.40;40.80
16263;DHT22;8239;48.594;8.598;2022-08-06T10:48:49;30.60;39.70
16263;DHT22;8239;48.594;8.598;2022-08-06T10:51:19;30.80;37.50
16263;DHT22;8239;48.594;8.598;2022-08-06T10:53:47;30.00;37.70
16263;DHT22;8239;48.594;8.598;2022-08-06T10:56:16;29.40;39.00
16263;DHT22;8239;48.594;8.598;2022-08-06T10:58:43;29.00;40.70
16263;DHT22;8239;48.594;8.598;2022-08-06T11:01:16;28.90;40.70
16263;DHT22;8239;48.594;8.598;2022-08-06T11:03:57;29.10;40.50
16263;DHT22;8239;48.594;8.598;2022-08-06T11:06:51;29.60;40.00
16263;DHT22;8239;48.594;8.598;2022-08-06T11:09:49;30.50;38.80
16263;DHT22;8239;48.594;8.598;2022-08-06T11:12:31;31.00;37.20
16263;DHT22;8239;48.594;8.598;2022-08-06T11:15:01;31.20;38.00
16263;DHT22;8239;48.594;8.598;2022-08-06T11:17:42;31.40;37.00
16263;DHT22;8239;48.594;8.598;2022-08-06T11:20:34;31.30;36.50
16263;DHT22;8239;48.594;8.598;2022-08-06T11:23:03;31.00;36.60
16263;DHT22;8239;48.594;8.598;2022-08-06T11:25:39;31.20;36.30
16263;DHT22;8239;48.594;8.598;2022-08-06T11:28:07;31.70;36.80
16263;DHT22;8239;48.594;8.598;2022-08-06T11:30:39;31.30;36.40
16263;DHT22;8239;48.594;8.598;2022-08-06T11:33:06;31.40;37.10
16263;DHT22;8239;48.594;8.598;2022-08-06T11:35:46;31.00;37.10
16263;DHT22;8239;48.594;8.598;2022-08-06T11:38:15;30.30;37.80
16263;DHT22;8239;48.594;8.598;2022-08-06T11:41:00;30.40;38.50
16263;DHT22;8239;48.594;8.598;2022-08-06T11:43:48;30.10;38.60
16263;DHT22;8239;48.594;8.598;2022-08-06T11:46:20;30.40;38.90
16263;DHT22;8239;48.594;8.598;2022-08-06T11:49:16;30.30;38.50
16263;DHT22;8239;48.594;8.598;2022-08-06T11:51:45;29.40;39.90
16263;DHT22;8239;48.594;8.598;2022-08-06T11:54:15;28.90;40.30
16263;DHT22;8239;48.594;8.598;2022-08-06T11:57:21;28.30;40.70
16263;DHT22;8239;48.594;8.598;2022-08-06T12:00:17;28.20;43.00
16263;DHT22;8239;48.594;8.598;2022-08-06T12:02:50;28.00;42.60
16263;DHT22;8239;48.594;8.598;2022-08-06T12:05:41;27.20;42.60
16263;DHT22;8239;48.594;8.598;2022-08-06T12:08:24;26.60;44.60
16263;DHT22;8239;48.594;8.598;2022-08-06T12:11:29;27.10;45.00
16263;DHT22;8239;48.594;8.598;2022-08-06T12:14:03;27.80;43.30
16263;DHT22;8239;48.594;8.598;2022-08-06T12:16:33;27.90;42.50
16263;DHT22;8239;48.594;8.598;2022-08-06T12:19:01;28.40;42.30
16263;DHT22;8239;48.594;8.598;2022-08-06T12:21:29;29.00;41.50
16263;DHT22;8239;48.594;8.598;2022-08-06T12:23:57;29.40;40.80
16263;DHT22;8239;48.594;8.598;2022-08-06T12:26:24;29.20;40.00
16263;DHT22;8239;48.594;8.598;2022-08-06T12:29:02;29.70;39.80
16263;DHT22;8239;48.594;8.598;2022-08-06T12:31:35;29.50;38.40
16263;DHT22;8239;48.594;8.598;2022-08-06T12:34:03;29.40;38.90
16263;DHT22;8239;48.594;8.598;2022-08-06T12:36:32;29.80;38.20
16263;DHT22;8239;48.594;8.598;2022-08-06T12:39:02;29.50;37.80
16263;DHT22;8239;48.594;8.598;2022-08-06T12:41:35;29.40;38.40
16263;DHT22;8239;48.594;8.598;2022-08-06T12:44:04;29.70;39.50
16263;DHT22;8239;48.594;8.598;2022-08-06T12:46:31;29.90;39.40
16263;DHT22;8239;48.594;8.598;2022-08-06T12:49:00;29.90;39.80
16263;DHT22;8239;48.594;8.598;2022-08-06T12:51:27;29.60;39.10
16263;DHT22;8239;48.594;8.598;2022-08-06T12:53:57;29.70;39.30
16263;DHT22;8239;48.594;8.598;2022-08-06T12:56:26;30.10;39.40
16263;DHT22;8239;48.594;8.598;2022-08-06T12:58:54;30.60;37.60
16263;DHT22;8239;48.594;8.598;2022-08-06T13:01:26;30.60;36.70
16263;DHT22;8239;48.594;8.598;2022-08-06T13:03:54;30.30;37.70
16263;DHT22;8239;48.594;8.598;2022-08-06T13:06:25;30.30;38.00
16263;DHT22;8239;48.594;8.598;2022-08-06T13:08:55;29.90;37.00
16263;DHT22;8239;48.594;8.598;2022-08-06T13:11:29;29.40;37.60
16263;DHT22;8239;48.594;8.598;2022-08-06T13:13:57;29.60;38.20
16263;DHT22;8239;48.594;8.598;2022-08-06T13:16:37;30.40;37.50
16263;DHT22;8239;48.594;8.598;2022-08-06T13:19:10;31.10;36.40
16263;DHT22;8239;48.594;8.598;2022-08-06T13:21:37;31.40;35.90
16263;DHT22;8239;48.594;8.598;2022-08-06T13:24:05;31.70;35.60
16263;DHT22;8239;48.594;8.598;2022-08-06T13:26:34;32.00;34.80
16263;DHT22;8239;48.594;8.598;2022-08-06T13:29:14;31.90;34.40
16263;DHT22;8239;48.594;8.598;2022-08-06T13:31:43;32.10;34.70
16263;DHT22;8239;48.594;8.598;2022-08-06T13:34:12;32.30;34.70
16263;DHT22;8239;48.594;8.598;2022-08-06T13:36:41;32.50;34.40
16263;DHT22;8239;48.594;8.598;2022-08-06T13:39:19;32.90;34.50
16263;DHT22;8239;48.594;8.598;2022-08-06T13:41:46;33.00;34.00
16263;DHT22;8239;48.594;8.598;2022-08-06T13:44:31;33.10;32.60
16263;DHT22;8239;48.594;8.598;2022-08-06T13:47:01;32.90;32.90
16263;DHT22;8239;48.594;8.598;2022-08-06T13:49:29;33.20;32.30
16263;DHT22;8239;48.594;8.598;2022-08-06T13:51:57;32.80;32.60
16263;DHT22;8239;48.594;8.598;2022-08-06T13:54:25;32.00;33.40
16263;DHT22;8239;48.594;8.598;2022-08-06T13:56:53;30.40;35.40
16263;DHT22;8239;48.594;8.598;2022-08-06T13:59:21;29.20;37.40
16263;DHT22;8239;48.594;8.598;2022-08-06T14:01:49;28.60;38.40
16263;DHT22;8239;48.594;8.598;2022-08-06T14:04:19;28.30;39.30
16263;DHT22;8239;48.594;8.598;2022-08-06T14:06:48;27.90;39.50
16263;DHT22;8239;48.594;8.598;2022-08-06T14:09:17;27.50;40.00
16263;DHT22;8239;48.594;8.598;2022-08-06T14:11:45;27.70;40.30
16263;DHT22;8239;48.594;8.598;2022-08-06T14:14:12;28.40;39.20
16263;DHT22;8239;48.594;8.598;2022-08-06T14:16:40;28.30;39.10
16263;DHT22;8239;48.594;8.598;2022-08-06T14:19:07;28.20;39.00
16263;DHT22;8239;48.594;8.598;2022-08-06T14:21:36;28.00;40.00
16263;DHT22;8239;48.594;8.598;2022-08-06T14:24:03;28.30;39.50
16263;DHT22;8239;48.594;8.598;2022-08-06T14:26:30;28.40;39.50
16263;DHT22;8239;48.594;8.598;2022-08-06T14:28:57;28.60;39.40
16263;DHT22;8239;48.594;8.598;2022-08-06T14:31:27;28.40;39.60
16263;DHT22;8239;48.594;8.598;2022-08-06T14:33:54;28.20;39.50
16263;DHT22;8239;48.594;8.598;2022-08-06T14:36:21;28.00;40.00
16263;DHT22;8239;48.594;8.598;2022-08-06T14:38:49;27.40;40.20
16263;DHT22;8239;48.594;8.598;2022-08-06T14:41:16;27.10;41.10
16263;DHT22;8239;48.594;8.598;2022-08-06T14:44:00;27.30;41.50
16263;DHT22;8239;48.594;8.598;2022-08-06T14:46:45;27.30;40.60
16263;DHT22;8239;48.594;8.598;2022-08-06T14:49:12;27.10;40.80
16263;DHT22;8239;48.594;8.598;2022-08-06T14:51:39;26.80;41.40
16263;DHT22;8239;48.594;8.598;2022-08-06T14:54:08;26.50;42.40
16263;DHT22;8239;48.594;8.598;2022-08-06T14:56:35;26.30;42.70
16263;DHT22;8239;48.594;8.598;2022-08-06T14:59:02;26.20;43.20
16263;DHT22;8239;48.594;8.598;2022-08-06T15:01:30;26.00;43.80
16263;DHT22;8239;48.594;8.598;2022-08-06T15:03:57;25.90;43.70
16263;DHT22;8239;48.594;8.598;2022-08-06T15:06:24;26.20;43.10
16263;DHT22;8239;48.594;8.598;2022-08-06T15:08:51;26.20;43.20
16263;DHT22;8239;48.594;8.598;2022-08-06T15:11:20;26.10;42.70
16263;DHT22;8239;48.594;8.598;2022-08-06T15:13:47;26.20;42.60
16263;DHT22;8239;48.594;8.598;2022-08-06T15:16:14;26.30;42.30
16263;DHT22;8239;48.594;8.598;2022-08-06T15:18:41;26.40;42.30
16263;DHT22;8239;48.594;8.598;2022-08-06T15:21:09;26.20;42.30
16263;DHT22;8239;48.594;8.598;2022-08-06T15:23:36;25.90;43.10
16263;DHT22;8239;48.594;8.598;2022-08-06T15:26:03;25.50;43.40
16263;DHT22;8239;48.594;8.598;2022-08-06T15:28:32;25.20;44.10
16263;DHT22;8239;48.594;8.598;2022-08-06T15:30:59;25.20;45.30
16263;DHT22;8239;48.594;8.598;2022-08-06T15:33:27;24.90;45.20
16263;DHT22;8239;48.594;8.598;2022-08-06T15:35:54;24.60;45.50
16263;DHT22;8239;48.594;8.598;2022-08-06T15:38:21;24.50;45.70
16263;DHT22;8239;48.594;8.598;2022-08-06T15:40:48;24.60;46.00
16263;DHT22;8239;48.594;8.598;2022-08-06T15:43:15;24.80;45.30
16263;DHT22;8239;48.594;8.598;2022-08-06T15:45:44;24.80;45.40
16263;DHT22;8239;48.594;8.598;2022-08-06T15:48:11;25.20;44.40
16263;DHT22;8239;48.594;8.598;2022-08-06T15:50:41;25.30;44.30
16263;DHT22;8239;48.594;8.598;2022-08-06T15:53:08;25.20;44.60
16263;DHT22;8239;48.594;8.598;2022-08-06T15:55:35;25.50;45.00
16263;DHT22;8239;48.594;8.598;2022-08-06T15:58:02;25.70;44.20
16263;DHT22;8239;48.594;8.598;2022-08-06T16:00:29;26.00;44.20
16263;DHT22;8239;48.594;8.598;2022-08-06T16:02:58;25.90;43.60
16263;DHT22;8239;48.594;8.598;2022-08-06T16:05:25;25.70;43.90